Observations for BREST GUIPAVAS, France (LFRB)

LFRB 221300Z AUTO 29009KT 250V320 9999 -RA BKN021/// BKN030/// BKN042/// ///CB 07/04 Q1006 TEMPO 30016G26KT 2000 SHGS BKN012CB  
LFRB 221230Z AUTO 27007KT 240V300 9999 BKN023/// BKN029/// OVC039/// ///TCU 07/04 Q1007 TEMPO 3000 SHGS FEW014CB SCT020 
LFRB 221200Z AUTO 28010KT 9999 SCT022/// BKN028/// BKN037/// ///CB 07/03 Q1007 TEMPO 3000 SHGS BKN014TCU
LFRB 221130Z AUTO 28012KT 260V320 9999 -RA BKN020/// BKN026/// OVC034/// ///CB 07/04 Q1008 TEMPO 3000 SHGS BKN014TCU
LFRB 221100Z AUTO 26007KT 230V300 9999 -RA FEW030/// BKN037/// BKN046/// ///CB 08/03 Q1008 TEMPO 3000 SHGS BKN014TCU
LFRB 221030Z AUTO 27007KT 230V300 9999 FEW030 SCT054 BKN066 08/04 Q1008 TEMPO 3000 SHGS FEW014CB SCT020 
LFRB 221000Z AUTO 27004KT 240V300 CAVOK 07/03 Q1009 TEMPO 4000 SHRA BKN014TCU   
LFRB 220930Z AUTO 28004KT 9999 FEW029 BKN110 BKN200 07/03 Q1009 TEMPO 4000 SHRA BKN014TCU   
LFRB 220900Z AUTO 27003KT 9999 FEW031 BKN064 BKN100 06/03 Q1009 TEMPO 4000 SHRA BKN014TCU   
LFRB 220830Z AUTO 29004KT 270V330 9999 FEW032 BKN100 05/01 Q1009 TEMPO 4000 SHRA BKN014TCU  
LFRB 220800Z AUTO 30006KT 9999 FEW035 05/01 Q1010 TEMPO 4000 SHRA BKN014TCU 
LFRB 220730Z AUTO 29006KT CAVOK 05/02 Q1010 TEMPO 4000 SHRA BKN014TCU   
LFRB 220700Z AUTO 31008KT 280V340 9999 FEW028/// SCT100/// ///CB 06/02 Q1010 TEMPO 4000 SHRA BKN014TCU  
LFRB 220630Z AUTO 30008KT 9999 FEW028 SCT036 BKN042 06/02 Q1010 TEMPO 4000 SHRA BKN014TCU   
LFRB 220600Z AUTO 29005KT 260V340 9999 3800 SCT030/// BKN039/// BKN045/// ///CB 05/02 Q1010 TEMPO 4000 SHRA BKN014TCU   
LFRB 220530Z AUTO 33005KT 300V010 9999 BKN028 OVC034 05/02 Q1010 TEMPO 4000 SHRA BKN014TCU  
LFRB 220500Z AUTO 31007KT 9999 FEW039/// ///TCU 06/01 Q1010 TEMPO 4000 SHRA BKN020  
LFRB 220430Z AUTO 32009KT 9999 ///CB 06/M00 Q1010 TEMPO 4000 SHRA BKN020
LFRB 220400Z AUTO 32010KT 290V350 9999 FEW041/// SCT150/// ///TCU 06/01 Q1010 BECMG BKN020  
LFRB 220330Z AUTO 33010KT 9999 FEW035 SCT048 OVC150 06/02 Q1011 NOSIG   
LFRB 220300Z AUTO 32008KT 9999 FEW034 BKN040 BKN049 06/03 Q1011 NOSIG   
LFRB 220230Z AUTO VRB03KT 9999 SCT035 SCT046 BKN058 05/04 Q1011 NOSIG   
LFRB 220200Z AUTO 33005KT 300V360 9999 FEW020 SCT037 BKN062 05/04 Q1012 NOSIG   
LFRB 220130Z AUTO 35008KT 9999 FEW013/// BKN027/// BKN035/// ///CB 05/04 Q1012 BECMG BKN020 
LFRB 220100Z AUTO 24015KT 6000 RA BKN010/// BKN020/// OVC025/// ///CB 08/06 Q1011 TEMPO 4000 BR RA BECMG 32010KT BKN020 
LFRB 220030Z AUTO 22015KT 9999 -RA BKN012/// BKN036/// BKN044/// ///CB 08/06 Q1012 TEMPO 4000 BR RA BECMG 32010KT BKN020
LFRB 220000Z AUTO 23015KT 9999 -RA FEW012/// SCT018/// BKN028/// ///TCU 08/06 Q1012 BECMG 4000 BR RA OVC006 
LFRB 212330Z AUTO 23018KT 9999 -RA FEW012/// SCT018/// BKN023/// ///TCU 08/05 Q1013 BECMG 4000 BR RA OVC006 
LFRB 212300Z AUTO 22012KT 9999 SCT031/// BKN056/// OVC120/// ///TCU 08/05 Q1014 TEMPO 25015G25KT 3000 RA OVC005 
LFRB 212230Z AUTO 23013KT 9999 FEW047 BKN058 BKN068 08/05 Q1014 TEMPO 25015G25KT 3000 RA OVC005 
LFRB 212200Z AUTO 23015KT 9999 SCT022 BKN046 BKN110 08/06 Q1015 TEMPO 25015G25KT 3000 RA OVC005 
LFRB 212130Z AUTO 22010KT 9999 FEW045 SCT052 BKN062 07/05 Q1016 TEMPO 25015G25KT 3000 RA OVC005 
LFRB 212100Z AUTO 24011KT 9999 -RA FEW014/// SCT022/// BKN033/// ///TCU 07/05 Q1016 TEMPO 25015G25KT 3000 RA OVC005 
LFRB 212030Z AUTO 22009KT 9999 -RA BKN021/// BKN026/// BKN031/// ///TCU 08/05 Q1017 TEMPO 25015G25KT 3000 RA OVC005 
LFRB 212000Z AUTO 24010KT 9999 RA BKN027 BKN032 OVC056 08/04 Q1018 TEMPO NSW BKN010 OVC090  
LFRB 211930Z AUTO 24010KT 9999 FEW016 BKN032 OVC038 08/05 Q1018 TEMPO BKN010 OVC090 
LFRB 211900Z AUTO 21009KT 9999 FEW013 BKN018 OVC028 07/05 Q1018 TEMPO BKN010 OVC090 
LFRB 211830Z AUTO 19010KT 9999 -DZ FEW020 SCT028 BKN036 07/05 Q1019 TEMPO BKN010 OVC090 
LFRB 211800Z AUTO 21010KT 9999 FEW019 SCT032 BKN048 08/04 Q1019 TEMPO BKN010 OVC090 
LFRB 211730Z AUTO 21010KT 9999 BKN020 BKN028 OVC034 08/04 Q1020 TEMPO BKN010 OVC090 
LFRB 211700Z AUTO 21009KT 9999 -RA FEW028 SCT039 BKN045 08/03 Q1021 BECMG BKN010 OVC090 
LFRB 211630Z AUTO 21009KT 9999 FEW034 OVC056 07/03 Q1021 BECMG BKN010 OVC090
LFRB 211600Z AUTO 21010KT 9999 -RA FEW032 BKN046 OVC052 07/03 Q1022 BECMG BKN010 OVC090 
LFRB 211530Z AUTO 20010KT 9999 BKN033 BKN054 08/03 Q1022 BECMG BKN010 OVC090
LFRB 211500Z AUTO 20010KT 9999 SCT042 OVC050 07/03 Q1022 BECMG BKN010 OVC090
LFRB 211430Z AUTO 21009KT 9999 FEW025 BKN048 OVC058 08/03 Q1022 BECMG BKN010 OVC090 
LFRB 211400Z AUTO 20009KT 9999 FEW024 BKN056 08/03 Q1023 BECMG BKN010 OVC090
LFRB 211330Z AUTO 20010KT CAVOK 08/04 Q1023 BECMG BKN010 OVC090 
LFRB 211300Z AUTO 19008KT 9999 SCT029 OVC050 07/05 Q1024 NOSIG  
LFRB 211230Z AUTO 20006KT 9999 FEW034 OVC045 06/04 Q1024 NOSIG